Time;durP1;ratioP1;P1;durP2;ratioP2;P2;SDS_P1;SDS_P2;PMS_P1;PMS_P2;Temp;Humidity;BMP_temperature;BMP_pressure;BME280_temperature;BME280_humidity;BME280_pressure;Samples;Min_cycle;Max_cycle;Signal;HPM_P1;HPM_P2
2022/08/05 00:00:37;;;;;;;6.47;3.28;;;;;;;;;;5032892;28;20037;-64
2022/08/05 00:03:03;;;;;;;9.52;3.53;;;17.90;99.90;;;;;;5051449;28;20037;-64
2022/08/05 00:05:28;;;;;;;8.70;4.75;;;18.00;99.90;;;;;;5033524;28;20398;-64
2022/08/05 00:07:54;;;;;;;7.50;3.70;;;18.10;99.90;;;;;;5033257;28;20043;-64
2022/08/05 00:10:21;;;;;;;6.13;3.17;;;;;;;;;;5054460;28;20049;-64
2022/08/05 00:12:47;;;;;;;7.88;3.03;;;;;;;;;;5037072;28;20095;-64
2022/08/05 00:15:13;;;;;;;7.55;3.42;;;17.70;99.90;;;;;;5054715;28;20363;-64
2022/08/05 00:17:39;;;;;;;5.70;3.00;;;;;;;;;;5055197;28;20040;-64
2022/08/05 00:20:05;;;;;;;11.07;3.15;;;17.70;99.90;;;;;;5036956;28;20048;-64
2022/08/05 00:22:31;;;;;;;7.15;2.88;;;;;;;;;;5036312;28;20094;-64
2022/08/05 00:24:57;;;;;;;7.80;3.53;;;;;;;;;;5054825;28;20076;-64
2022/08/05 00:27:23;;;;;;;7.68;3.63;;;;;;;;;;5020407;28;20045;-64
2022/08/05 00:29:49;;;;;;;9.77;3.70;;;;;;;;;;5036228;28;20048;-64
2022/08/05 00:32:15;;;;;;;7.43;3.60;;;;;;;;;;5037484;28;20397;-64
2022/08/05 00:34:44;;;;;;;6.50;3.17;;;17.90;99.90;;;;;;5053751;28;20041;-64
2022/08/05 00:37:10;;;;;;;6.78;3.42;;;;;;;;;;5037294;28;20559;-64
2022/08/05 00:39:36;;;;;;;7.70;3.22;;;;;;;;;;5036788;28;20121;-64
2022/08/05 00:42:03;;;;;;;5.57;3.08;;;;;;;;;;5019299;28;20045;-64
2022/08/05 00:44:29;;;;;;;7.90;3.30;;;;;;;;;;5054430;28;20494;-64
2022/08/05 00:46:55;;;;;;;6.28;3.10;;;;;;;;;;5054397;28;20124;-64
2022/08/05 00:49:20;;;;;;;6.90;3.67;;;17.40;99.90;;;;;;5053900;28;20040;-64
2022/08/05 00:51:46;;;;;;;7.40;3.65;;;17.40;99.90;;;;;;5036604;28;20385;-64
2022/08/05 00:54:12;;;;;;;5.88;3.22;;;17.60;99.90;;;;;;5036823;28;20098;-64
2022/08/05 00:56:38;;;;;;;7.97;3.67;;;17.50;99.90;;;;;;5019152;28;20406;-64
2022/08/05 00:59:05;;;;;;;7.95;4.13;;;17.70;99.90;;;;;;5054366;28;20114;-64
2022/08/05 01:01:30;;;;;;;9.40;3.95;;;18.00;99.90;;;;;;5054315;28;20040;-64
2022/08/05 01:03:56;;;;;;;8.80;3.80;;;17.60;99.90;;;;;;5035874;28;20033;-64
2022/08/05 01:06:22;;;;;;;8.38;4.03;;;;;;;;;;5019844;28;20047;-64
2022/08/05 01:08:48;;;;;;;12.57;4.18;;;17.60;99.90;;;;;;5035909;28;20072;-64
2022/08/05 01:11:29;;;;;;;6.93;4.75;;;17.40;99.90;;;;;;5035822;28;20504;-64
2022/08/05 01:14:12;;;;;;;7.28;4.53;;;17.80;99.90;;;;;;5019508;28;20045;-64
2022/08/05 01:16:47;;;;;;;7.35;4.50;;;17.70;99.90;;;;;;5035962;28;20045;-64
2022/08/05 01:19:16;;;;;;;8.52;4.47;;;17.20;99.90;;;;;;5054173;28;20029;-64
2022/08/05 01:22:00;;;;;;;6.20;3.90;;;18.50;99.90;;;;;;5035707;28;20454;-64
2022/08/05 01:24:39;;;;;;;6.68;3.72;;;17.50;99.90;;;;;;5053124;28;20047;-65
2022/08/05 01:27:28;;;;;;;7.32;3.67;;;17.40;99.90;;;;;;5053795;28;20052;-64
2022/08/05 01:30:01;;;;;;;6.70;3.00;;;;;;;;;;5035809;28;20036;-64
2022/08/05 01:32:30;;;;;;;7.35;3.28;;;17.70;99.90;;;;;;5052909;28;20041;-64
2022/08/05 01:34:57;;;;;;;9.73;3.83;;;;;;;;;;5035823;28;20096;-64
2022/08/05 01:37:36;;;;;;;8.13;3.35;;;;;;;;;;5035643;28;20047;-64
2022/08/05 01:40:02;;;;;;;7.55;3.55;;;;;;;;;;5035121;28;20037;-64
2022/08/05 01:42:29;;;;;;;8.00;3.20;;;;;;;;;;5035519;28;20516;-64
2022/08/05 01:44:57;;;;;;;5.60;3.33;;;17.60;99.90;;;;;;5052377;28;20045;-64
2022/08/05 01:47:23;;;;;;;6.47;3.97;;;;;;;;;;5035438;28;20124;-64
2022/08/05 01:49:51;;;;;;;11.40;3.92;;;;;;;;;;5035427;28;20045;-64
2022/08/05 01:52:18;;;;;;;6.90;3.60;;;;;;;;;;5052614;28;20498;-64
2022/08/05 01:54:57;;;;;;;6.05;3.40;;;17.50;99.90;;;;;;5052940;28;20045;-64
2022/08/05 01:57:32;;;;;;;8.25;3.40;;;17.50;99.90;;;;;;5053367;28;20090;-64
2022/08/05 02:00:01;;;;;;;5.30;3.10;;;17.40;99.90;;;;;;5052413;28;20394;-64
2022/08/05 02:02:29;;;;;;;7.18;3.78;;;17.40;99.90;;;;;;5053001;28;20037;-64
2022/08/05 02:04:59;;;;;;;6.80;3.75;;;17.30;99.90;;;;;;5052884;28;20124;-64
2022/08/05 02:07:25;;;;;;;9.57;4.72;;;;;;;;;;5052027;28;20041;-64
2022/08/05 02:09:51;;;;;;;7.53;4.00;;;;;;;;;;5035240;28;20110;-64
2022/08/05 02:13:00;;;;;;;6.88;4.30;;;17.30;99.90;;;;;;5035296;28;20045;-65
2022/08/05 02:15:26;;;;;;;7.07;4.03;;;;;;;;;;5022615;28;20045;-64
2022/08/05 02:18:04;;;;;;;10.35;4.57;;;17.10;99.90;;;;;;5052560;28;20029;-64
2022/08/05 02:20:33;;;;;;;8.30;4.68;;;;;;;;;;5051681;28;20509;-65
2022/08/05 02:23:00;;;;;;;6.68;4.47;;;;;;;;;;5052778;28;20048;-65
2022/08/05 02:25:33;;;;;;;9.13;3.90;;;;;;;;;;5034692;28;20067;-64
2022/08/05 02:28:01;;;;;;;8.00;4.35;;;17.00;99.90;;;;;;5051712;28;20037;-64
2022/08/05 02:30:30;;;;;;;8.30;4.63;;;;;;;;;;5034528;28;20076;-64
2022/08/05 02:32:58;;;;;;;9.30;5.25;;;;;;;;;;5034179;28;20045;-65
2022/08/05 02:35:25;;;;;;;7.50;4.75;;;;;;;;;;5033713;28;20037;-64
2022/08/05 02:37:53;;;;;;;8.10;5.60;;;;;;;;;;5034590;28;20045;-64
2022/08/05 02:40:21;;;;;;;6.78;4.28;;;16.80;99.90;;;;;;5052693;28;20036;-64
2022/08/05 02:42:48;;;;;;;9.32;4.88;;;;;;;;;;5033565;28;20051;-64
2022/08/05 02:45:15;;;;;;;6.78;4.78;;;;;;;;;;5052755;28;20045;-64
2022/08/05 02:47:42;;;;;;;9.60;5.22;;;;;;;;;;5052377;28;20366;-64
2022/08/05 02:50:08;;;;;;;7.45;5.15;;;;;;;;;;5051784;28;20052;-64
2022/08/05 02:52:35;;;;;;;9.02;5.20;;;;;;;;;;5052254;28;20037;-63
2022/08/05 02:55:04;;;;;;;8.40;5.43;;;16.70;99.90;;;;;;5052185;28;20060;-64
2022/08/05 02:57:31;;;;;;;8.02;5.70;;;16.70;99.90;;;;;;5051243;28;20550;-64
2022/08/05 02:59:57;;;;;;;9.02;5.95;;;;;;;;;;5034420;28;20102;-64
2022/08/05 03:02:27;;;;;;;8.13;5.22;;;16.70;99.90;;;;;;5033382;28;20061;-64
2022/08/05 03:04:54;;;;;;;8.45;5.50;;;;;;;;;;5051934;28;20044;-64
2022/08/05 03:07:21;;;;;;;7.53;5.53;;;;;;;;;;5034505;28;20068;-64
2022/08/05 03:09:47;;;;;;;7.63;5.38;;;;;;;;;;5050934;28;20098;-64
2022/08/05 03:12:33;;;;;;;9.70;5.32;;;;;;;;;;5034363;28;20049;-64
2022/08/05 03:14:59;;;;;;;7.88;6.07;;;;;;;;;;5051909;28;20052;-64
2022/08/05 03:17:25;;;;;;;10.98;5.75;;;;;;;;;;5051182;28;20367;-64
2022/08/05 03:19:51;;;;;;;10.10;5.88;;;;;;;;;;5051796;28;20115;-64
2022/08/05 03:22:17;;;;;;;7.95;5.30;;;;;;;;;;5034128;28;20063;-64
2022/08/05 03:24:44;;;;;;;8.15;5.15;;;;;;;;;;5033050;28;20033;-64
2022/08/05 03:27:11;;;;;;;8.20;4.63;;;;;;;;;;5034191;28;20048;-65
2022/08/05 03:29:39;;;;;;;8.15;5.10;;;;;;;;;;5033954;28;20478;-64
2022/08/05 03:32:06;;;;;;;8.27;4.97;;;;;;;;;;5050849;28;20120;-64
2022/08/05 03:34:32;;;;;;;8.52;5.50;;;;;;;;;;5034015;28;20475;-64
2022/08/05 03:36:58;;;;;;;7.75;5.18;;;;;;;;;;5033758;28;20053;-64
2022/08/05 03:39:24;;;;;;;10.52;5.68;;;;;;;;;;5051095;28;20033;-64
2022/08/05 03:41:50;;;;;;;6.82;5.03;;;;;;;;;;5051648;28;20116;-64
2022/08/05 03:44:16;;;;;;;8.73;5.00;;;;;;;;;;5035146;28;20482;-63
2022/08/05 03:46:42;;;;;;;9.52;5.30;;;;;;;;;;5037026;28;20084;-64
2022/08/05 03:49:08;;;;;;;7.35;4.88;;;;;;;;;;5055781;28;20083;-64
2022/08/05 03:51:49;;;;;;;8.45;5.47;;;;;;;;;;5036829;28;20037;-64
2022/08/05 03:54:15;;;;;;;8.10;4.88;;;;;;;;;;5055826;28;20075;-64
2022/08/05 03:56:43;;;;;;;13.38;5.53;;;;;;;;;;5037342;28;20080;-64
2022/08/05 03:59:13;;;;;;;6.90;5.05;;;;;;;;;;5036903;28;20037;-64
2022/08/05 04:01:41;;;;;;;7.00;4.68;;;;;;;;;;5055590;28;20044;-64
2022/08/05 04:04:08;;;;;;;6.88;5.03;;;;;;;;;;5055112;28;20056;-64
2022/08/05 04:06:34;;;;;;;7.05;4.82;;;;;;;;;;5054596;28;20052;-64
2022/08/05 04:09:01;;;;;;;7.75;4.70;;;;;;;;;;5037278;28;20073;-64
2022/08/05 04:11:27;;;;;;;9.00;4.30;;;;;;;;;;5055133;28;20049;-64
2022/08/05 04:13:54;;;;;;;8.32;4.95;;;;;;;;;;5054240;28;20095;-64
2022/08/05 04:16:20;;;;;;;8.82;5.55;;;16.40;99.90;;;;;;5055292;28;20041;-64
2022/08/05 04:18:45;;;;;;;8.40;5.10;;;15.90;99.90;;;;;;5054752;28;20180;-64
2022/08/05 04:21:11;;;;;;;8.25;5.55;;;16.20;99.90;;;;;;5036420;28;20499;-64
2022/08/05 04:23:38;;;;;;;8.18;5.78;;;16.70;99.90;;;;;;5055049;28;20448;-64
2022/08/05 04:26:04;;;;;;;8.95;5.35;;;16.20;99.90;;;;;;5054869;28;20041;-64
2022/08/05 04:28:30;;;;;;;7.20;5.30;;;16.20;99.90;;;;;;5054187;28;20047;-64
2022/08/05 04:30:55;;;;;;;7.57;5.32;;;15.90;99.90;;;;;;5037216;28;20052;-64
2022/08/05 04:33:21;;;;;;;7.03;4.80;;;15.90;99.90;;;;;;5054948;28;20489;-64
2022/08/05 04:35:47;;;;;;;7.97;5.25;;;16.70;99.90;;;;;;5054070;28;20052;-64
2022/08/05 04:38:12;;;;;;;6.65;4.88;;;16.30;99.90;;;;;;5055100;28;20041;-64
2022/08/05 04:40:39;;;;;;;7.65;4.95;;;16.30;99.90;;;;;;5054642;28;20479;-64
2022/08/05 04:43:06;;;;;;;7.60;4.93;;;16.30;99.90;;;;;;5036030;28;20076;-64
2022/08/05 04:45:33;;;;;;;8.68;5.40;;;16.30;99.90;;;;;;5054587;28;20045;-64
2022/08/05 04:48:13;;;;;;;7.90;5.25;;;16.30;99.90;;;;;;5054006;28;20041;-64
2022/08/05 04:50:47;;;;;;;8.38;5.55;;;16.40;99.90;;;;;;5036593;28;20091;-64
2022/08/05 04:53:14;;;;;;;7.70;5.63;;;16.30;99.90;;;;;;5037286;28;20385;-64
2022/08/05 04:55:40;;;;;;;7.93;5.25;;;;;;;;;;5035125;28;20489;-64
2022/08/05 04:58:07;;;;;;;6.85;4.93;;;;;;;;;;5036377;28;20090;-64
2022/08/05 05:00:34;;;;;;;7.50;4.45;;;16.20;99.90;;;;;;5054206;28;20509;-64
2022/08/05 05:03:00;;;;;;;7.15;4.82;;;16.60;99.90;;;;;;5035602;28;20036;-64
2022/08/05 05:05:27;;;;;;;6.68;5.00;;;16.60;99.90;;;;;;5054206;28;20531;-64
2022/08/05 05:08:00;;;;;;;7.93;5.65;;;16.30;99.90;;;;;;5054057;28;20049;-64
2022/08/05 05:10:26;;;;;;;9.55;5.85;;;;;;;;;;5035262;28;20498;-64
2022/08/05 05:12:52;;;;;;;9.48;4.68;;;;;;;;;;5054004;28;20037;-64
2022/08/05 05:15:18;;;;;;;10.07;4.40;;;;;;;;;;5054017;28;20569;-64
2022/08/05 05:17:44;;;;;;;6.47;4.70;;;;;;;;;;5053066;28;20397;-64
2022/08/05 05:20:11;;;;;;;7.30;4.82;;;;;;;;;;5054301;28;20120;-64
2022/08/05 05:22:36;;;;;;;11.05;5.38;;;16.50;99.90;;;;;;5053617;28;20547;-64
2022/08/05 05:25:03;;;;;;;8.07;5.53;;;16.00;99.90;;;;;;5034977;28;20052;-64
2022/08/05 05:27:31;;;;;;;8.95;5.35;;;15.80;99.90;;;;;;5053678;28;20049;-64
2022/08/05 05:29:57;;;;;;;9.18;5.57;;;;;;;;;;5053387;28;20098;-64
2022/08/05 05:32:23;;;;;;;9.82;5.15;;;17.00;99.90;;;;;;5053804;28;20076;-64
2022/08/05 05:34:48;;;;;;;6.75;4.22;;;16.20;99.90;;;;;;5035609;28;20523;-64
2022/08/05 05:37:14;;;;;;;7.20;4.93;;;16.70;99.90;;;;;;5052856;28;20041;-64
2022/08/05 05:39:40;;;;;;;7.35;5.10;;;16.50;99.90;;;;;;5035877;28;20150;-64
2022/08/05 05:42:06;;;;;;;9.48;5.05;;;16.50;99.90;;;;;;5053322;28;20040;-64
2022/08/05 05:44:32;;;;;;;7.07;4.40;;;16.40;99.90;;;;;;5034795;28;20040;-64
2022/08/05 05:46:58;;;;;;;6.70;4.43;;;16.60;99.90;;;;;;5053382;28;20048;-64
2022/08/05 05:49:25;;;;;;;7.43;4.07;;;16.60;99.90;;;;;;5053686;28;20112;-64
2022/08/05 05:51:51;;;;;;;7.43;4.70;;;16.80;99.90;;;;;;5052404;28;20040;-64
2022/08/05 05:54:16;;;;;;;7.45;4.07;;;16.90;99.90;;;;;;5053432;28;20037;-64
2022/08/05 05:56:42;;;;;;;7.50;4.57;;;;;;;;;;5035007;28;20052;-64
2022/08/05 05:59:08;;;;;;;5.90;3.97;;;17.20;99.90;;;;;;5052763;28;20064;-64
2022/08/05 06:01:36;;;;;;;6.00;3.85;;;17.60;99.90;;;;;;5053022;28;20052;-64
2022/08/05 06:04:02;;;;;;;6.20;3.53;;;17.80;99.90;;;;;;5053135;28;20045;-64
2022/08/05 06:06:28;;;;;;;5.57;2.88;;;17.50;99.90;;;;;;5051434;28;20098;-64
2022/08/05 06:08:54;;;;;;;5.60;2.88;;;;;;;;;;5052710;28;20094;-65
2022/08/05 06:11:20;;;;;;;7.45;3.50;;;17.80;99.90;;;;;;5053189;28;20133;-64
2022/08/05 06:13:45;;;;;;;6.22;3.00;;;18.00;99.90;;;;;;5051778;28;20120;-64
2022/08/05 06:16:11;;;;;;;5.50;2.97;;;18.10;99.90;;;;;;5053281;28;20116;-64
2022/08/05 06:18:37;;;;;;;5.40;2.60;;;18.50;99.90;;;;;;5035263;28;20051;-64
2022/08/05 06:21:03;;;;;;;6.40;2.78;;;18.20;99.90;;;;;;5034067;28;20490;-64
2022/08/05 06:23:30;;;;;;;7.47;3.10;;;18.30;99.90;;;;;;5052436;28;20512;-64
2022/08/05 06:25:56;;;;;;;6.18;2.75;;;18.10;99.90;;;;;;5052547;28;20477;-64
2022/08/05 06:28:22;;;;;;;6.60;2.55;;;18.40;99.90;;;;;;5034370;28;20123;-64
2022/08/05 06:30:48;;;;;;;4.57;2.08;;;18.50;99.90;;;;;;5052496;28;20405;-64
2022/08/05 06:33:18;;;;;;;6.32;2.83;;;18.60;99.90;;;;;;5052782;28;20040;-64
2022/08/05 06:35:44;;;;;;;5.85;2.35;;;18.60;99.90;;;;;;5052210;28;20438;-64
2022/08/05 06:38:09;;;;;;;4.65;2.05;;;18.70;99.90;;;;;;5052527;28;20116;-64
2022/08/05 06:40:35;;;;;;;5.32;1.92;;;19.00;99.90;;;;;;5033754;28;20429;-64
2022/08/05 06:43:01;;;;;;;4.28;1.50;;;19.10;99.90;;;;;;5052395;28;20060;-64
2022/08/05 06:45:26;;;;;;;3.63;1.77;;;19.10;99.90;;;;;;5034625;28;20051;-64
2022/08/05 06:47:52;;;;;;;3.90;1.50;;;19.20;99.90;;;;;;5050641;28;20056;-64
2022/08/05 06:50:17;;;;;;;4.40;1.40;;;19.20;99.90;;;;;;5051310;28;20048;-64
2022/08/05 06:52:43;;;;;;;3.67;1.33;;;19.30;99.90;;;;;;5051897;28;20048;-64
2022/08/05 06:55:09;;;;;;;3.88;1.25;;;19.40;99.90;;;;;;5033649;28;20041;-65
2022/08/05 06:57:34;;;;;;;3.17;1.10;;;19.50;99.90;;;;;;5033501;28;20166;-65
2022/08/05 07:00:02;;;;;;;3.75;1.70;;;19.40;99.90;;;;;;5048818;28;20033;-64
2022/08/05 07:02:28;;;;;;;4.30;1.20;;;19.60;99.90;;;;;;5011314;28;20057;-65
2022/08/05 07:04:53;;;;;;;3.22;1.35;;;19.50;99.90;;;;;;5043253;28;20044;-64
2022/08/05 07:07:19;;;;;;;4.03;1.40;;;19.50;99.90;;;;;;5049749;28;20041;-63
2022/08/05 07:09:45;;;;;;;4.10;1.48;;;19.60;99.90;;;;;;5047965;28;20036;-64
2022/08/05 07:16:48;;;;;;;7.30;1.88;;;19.50;99.90;;;;;;5031248;28;20115;-64
2022/08/05 07:17:40;;;;;;;5.10;1.40;;;19.10;99.90;;;;;;5048104;28;20052;-64
2022/08/05 07:20:06;;;;;;;3.15;1.63;;;18.80;99.90;;;;;;5031246;28;20060;-64
2022/08/05 07:22:31;;;;;;;2.38;0.90;;;19.10;99.90;;;;;;5048116;28;20134;-64
2022/08/05 07:24:59;;;;;;;3.38;1.10;;;19.10;99.90;;;;;;5030672;28;20525;-64
2022/08/05 07:27:25;;;;;;;3.85;1.10;;;19.10;99.90;;;;;;5046569;28;20115;-64
2022/08/05 07:29:50;;;;;;;3.95;0.88;;;19.10;99.90;;;;;;5013475;28;20522;-64
2022/08/05 07:32:16;;;;;;;4.72;1.05;;;19.00;99.90;;;;;;5048256;28;20036;-64
2022/08/05 07:34:42;;;;;;;4.10;1.17;;;19.70;99.90;;;;;;5031158;28;20515;-63
2022/08/05 07:37:07;;;;;;;2.97;1.10;;;19.00;99.90;;;;;;5029987;28;20049;-65
2022/08/05 07:39:33;;;;;;;4.28;1.10;;;18.90;99.90;;;;;;5048807;28;20033;-63
2022/08/05 07:41:58;;;;;;;4.10;1.00;;;19.40;99.90;;;;;;5028153;28;20052;-64
2022/08/05 07:44:24;;;;;;;3.20;0.90;;;19.30;99.90;;;;;;5049430;28;20052;-65
2022/08/05 07:46:50;;;;;;;2.55;1.00;;;19.00;99.90;;;;;;5044308;28;20074;-64
2022/08/05 07:49:17;;;;;;;3.22;1.00;;;19.30;99.90;;;;;;5030945;28;20051;-64
2022/08/05 07:51:43;;;;;;;2.95;0.93;;;;;;;;;;5038439;28;20075;-62
2022/08/05 07:54:08;;;;;;;3.97;1.27;;;19.00;99.90;;;;;;5051450;28;20121;-63
2022/08/05 07:56:34;;;;;;;7.43;2.55;;;;;;;;;;5053924;28;20124;-63
2022/08/05 07:59:00;;;;;;;2.67;1.13;;;19.00;99.90;;;;;;5048586;28;20041;-64
2022/08/05 08:01:26;;;;;;;5.07;1.45;;;19.40;99.90;;;;;;5048456;28;20416;-64
2022/08/05 08:03:52;;;;;;;3.13;0.90;;;19.50;99.90;;;;;;5035260;28;20048;-64
2022/08/05 08:06:18;;;;;;;3.95;1.15;;;18.90;99.90;;;;;;5030778;28;20119;-64
2022/08/05 08:08:43;;;;;;;2.88;1.20;;;19.10;99.90;;;;;;5050418;28;20037;-65
2022/08/05 08:11:09;;;;;;;3.00;1.17;;;19.00;99.90;;;;;;5049066;28;20037;-65
2022/08/05 08:13:35;;;;;;;3.65;0.82;;;19.00;99.90;;;;;;5047761;28;20076;-64
2022/08/05 08:16:00;;;;;;;1.85;1.00;;;19.00;99.90;;;;;;5048782;28;20049;-65
2022/08/05 08:18:26;;;;;;;3.63;0.80;;;18.80;99.90;;;;;;5031312;28;20120;-64
2022/08/05 08:20:52;;;;;;;3.80;1.23;;;18.80;99.90;;;;;;5047930;28;20045;-64
2022/08/05 08:23:17;;;;;;;4.15;1.00;;;18.90;99.90;;;;;;5049262;28;20037;-64
2022/08/05 08:25:44;;;;;;;4.53;0.93;;;19.30;99.90;;;;;;5025542;28;20468;-64
2022/08/05 08:28:10;;;;;;;2.90;1.00;;;19.30;99.90;;;;;;5026567;28;20060;-64
2022/08/05 08:30:35;;;;;;;2.92;0.93;;;19.00;99.90;;;;;;5032237;28;20402;-64
2022/08/05 08:33:07;;;;;;;4.70;1.00;;;19.30;99.90;;;;;;5050286;28;20059;-64
2022/08/05 08:35:33;;;;;;;3.83;0.88;;;;;;;;;;5049569;28;20056;-64
2022/08/05 08:37:58;;;;;;;2.65;0.80;;;19.30;99.90;;;;;;5033761;28;20041;-64
2022/08/05 08:40:25;;;;;;;3.00;1.10;;;19.40;99.90;;;;;;5051481;28;20033;-64
2022/08/05 08:42:53;;;;;;;3.00;1.25;;;19.60;99.90;;;;;;5051770;28;20464;-64
2022/08/05 08:45:21;;;;;;;3.47;0.90;;;19.90;99.90;;;;;;5055028;28;20037;-64
2022/08/05 08:47:49;;;;;;;1.92;0.80;;;19.40;99.90;;;;;;5050891;28;20043;-62
2022/08/05 08:50:18;;;;;;;3.17;1.00;;;19.30;99.90;;;;;;5036704;28;20045;-62
2022/08/05 08:52:55;;;;;;;4.00;0.90;;;19.70;99.90;;;;;;5053861;28;20474;-62
2022/08/05 08:55:21;;;;;;;3.28;1.15;;;19.90;99.90;;;;;;5035640;28;20405;-63
2022/08/05 08:57:48;;;;;;;1.77;0.75;;;;;;;;;;5034602;28;20045;-62
2022/08/05 09:00:13;;;;;;;4.53;0.90;;;19.70;99.90;;;;;;5054608;28;20037;-63
2022/08/05 09:02:39;;;;;;;2.67;0.90;;;19.60;99.90;;;;;;5053284;28;20039;-63
2022/08/05 09:05:05;;;;;;;4.10;1.42;;;19.70;99.90;;;;;;5035756;28;20033;-63
2022/08/05 09:07:31;;;;;;;2.50;0.93;;;19.80;99.90;;;;;;5036431;28;20449;-63
2022/08/05 09:09:57;;;;;;;2.42;0.60;;;19.90;99.90;;;;;;5035439;28;20164;-62
2022/08/05 09:12:23;;;;;;;3.53;1.17;;;19.90;99.90;;;;;;5035810;28;20383;-62
2022/08/05 09:14:48;;;;;;;5.05;0.70;;;20.20;99.90;;;;;;5053634;28;20060;-63
2022/08/05 09:17:14;;;;;;;2.55;0.90;;;19.90;99.90;;;;;;5035638;28;20424;-63
2022/08/05 09:19:40;;;;;;;3.28;0.80;;;19.90;99.90;;;;;;5018958;28;20672;-62
2022/08/05 09:22:07;;;;;;;1.55;0.40;;;20.10;99.90;;;;;;5035187;28;20045;-62
2022/08/05 09:24:37;;;;;;;2.75;0.88;;;20.10;99.90;;;;;;5053824;28;20057;-63
2022/08/05 09:27:07;;;;;;;1.92;0.70;;;19.90;99.90;;;;;;5032302;28;20050;-63
2022/08/05 09:29:44;;;;;;;2.63;0.85;;;20.10;99.90;;;;;;5034489;28;20128;-63
2022/08/05 09:32:11;;;;;;;3.05;1.10;;;20.20;99.90;;;;;;5053902;28;20080;-63
2022/08/05 09:34:51;;;;;;;2.60;0.70;;;19.80;99.90;;;;;;5035618;28;20037;-63
2022/08/05 09:37:22;;;;;;;1.95;0.60;;;20.00;99.90;;;;;;5035101;28;20453;-63
2022/08/05 09:39:48;;;;;;;5.22;0.73;;;20.20;99.90;;;;;;5032352;28;20092;-63
2022/08/05 09:42:16;;;;;;;3.08;0.75;;;20.10;99.90;;;;;;5053821;28;20509;-63
2022/08/05 09:44:49;;;;;;;3.28;0.52;;;19.90;99.40;;;;;;5034062;28;20049;-63
2022/08/05 09:47:20;;;;;;;1.58;0.60;;;20.10;98.00;;;;;;5053607;28;20475;-62
2022/08/05 09:49:50;;;;;;;2.17;0.50;;;20.20;96.90;;;;;;5035004;28;20078;-63
2022/08/05 09:52:26;;;;;;;0.70;0.38;;;20.10;96.60;;;;;;5035039;28;20120;-63
2022/08/05 09:55:00;;;;;;;1.25;0.60;;;20.20;99.90;;;;;;5020073;28;20549;-64
2022/08/05 09:57:34;;;;;;;3.17;0.68;;;19.80;99.90;;;;;;5030487;28;20048;-63
2022/08/05 10:00:02;;;;;;;;;;;20.10;95.30;;;;;;5034386;28;20040;-63
2022/08/05 10:02:36;;;;;;;1.58;0.50;;;20.10;96.20;;;;;;5027251;28;19974;-63
2022/08/05 10:05:08;;;;;;;3.25;0.60;;;20.40;99.90;;;;;;5034007;28;20075;-63
2022/08/05 10:07:53;;;;;;;5.03;0.82;;;20.20;96.10;;;;;;5034347;28;20517;-63
2022/08/05 10:10:31;;;;;;;1.05;0.40;;;20.20;95.70;;;;;;5045335;28;20081;-63
2022/08/05 10:13:01;;;;;;;6.20;0.70;;;20.20;93.90;;;;;;5051373;28;20111;-64
2022/08/05 10:15:33;;;;;;;0.73;0.40;;;20.20;95.00;;;;;;5033789;28;20466;-66
2022/08/05 10:18:13;;;;;;;1.00;0.43;;;20.30;94.80;;;;;;5034502;28;20465;-65
2022/08/05 10:20:42;;;;;;;1.48;0.40;;;20.20;92.70;;;;;;5030034;28;20143;-65
2022/08/05 10:23:11;;;;;;;1.73;0.60;;;20.30;92.70;;;;;;5026990;28;20053;-65
2022/08/05 10:25:36;;;;;;;2.72;0.85;;;20.20;93.90;;;;;;5020959;28;20063;-67
2022/08/05 10:28:02;;;;;;;4.32;0.93;;;20.20;94.00;;;;;;5052312;28;20989;-66
2022/08/05 10:30:28;;;;;;;5.68;1.27;;;20.50;94.40;;;;;;5034637;28;20119;-66
2022/08/05 10:32:58;;;;;;;2.10;0.55;;;20.00;99.90;;;;;;5050863;28;20086;-66
2022/08/05 10:35:24;;;;;;;0.50;0.30;;;20.10;95.50;;;;;;5034401;28;20528;-66
2022/08/05 10:37:50;;;;;;;5.47;1.38;;;20.20;99.90;;;;;;5034397;28;20072;-66
2022/08/05 10:40:24;;;;;;;0.90;0.52;;;20.20;95.50;;;;;;5033286;28;20068;-66
2022/08/05 10:42:52;;;;;;;1.98;0.68;;;20.90;99.90;;;;;;5051904;28;20043;-66
2022/08/05 10:45:25;;;;;;;3.35;0.95;;;20.20;94.80;;;;;;5052010;28;20052;-66
2022/08/05 10:47:51;;;;;;;3.30;1.30;;;20.30;96.00;;;;;;5053106;28;20039;-66
2022/08/05 10:50:17;;;;;;;4.70;0.70;;;20.20;95.70;;;;;;5041552;28;20465;-66
2022/08/05 10:52:51;;;;;;;2.05;0.98;;;20.10;95.70;;;;;;5016835;28;20047;-67
2022/08/05 10:55:17;;;;;;;2.93;0.83;;;20.20;95.40;;;;;;5041596;28;20454;-64
2022/08/05 10:57:44;;;;;;;2.70;0.63;;;20.30;93.90;;;;;;5017809;28;20033;-67
2022/08/05 11:00:15;;;;;;;3.33;0.50;;;20.50;94.30;;;;;;5030329;28;20051;-65
2022/08/05 11:03:09;;;;;;;4.53;0.95;;;20.50;99.90;;;;;;5022760;28;20119;-66
2022/08/05 11:05:36;;;;;;;2.40;1.00;;;20.40;99.90;;;;;;5033814;28;20048;-63
2022/08/05 11:08:05;;;;;;;3.88;1.27;;;20.50;99.90;;;;;;5033126;28;20048;-63
2022/08/05 11:10:33;;;;;;;3.15;1.10;;;20.60;94.70;;;;;;5051363;28;20044;-64
2022/08/05 11:12:59;;;;;;;4.88;0.95;;;20.60;95.20;;;;;;5050954;28;20081;-64
2022/08/05 11:15:34;;;;;;;2.95;0.95;;;20.70;94.40;;;;;;5050643;28;20048;-64
2022/08/05 11:18:07;;;;;;;1.20;0.80;;;20.70;92.50;;;;;;5033856;28;20048;-63
2022/08/05 11:20:38;;;;;;;4.97;0.70;;;20.70;92.80;;;;;;5051048;28;20032;-64
2022/08/05 11:23:35;;;;;;;1.15;0.60;;;20.70;99.90;;;;;;5050548;28;20086;-64
2022/08/05 11:26:09;;;;;;;2.05;0.60;;;20.70;99.90;;;;;;5032802;28;20085;-63
2022/08/05 11:28:34;;;;;;;2.97;0.90;;;20.70;92.90;;;;;;5033455;28;20119;-64
2022/08/05 11:31:00;;;;;;;4.22;0.90;;;20.70;93.80;;;;;;5032658;28;20127;-64
2022/08/05 11:33:37;;;;;;;1.60;0.73;;;20.50;93.90;;;;;;5033656;28;20048;-62
2022/08/05 11:36:07;;;;;;;2.70;0.63;;;20.10;99.90;;;;;;5032408;28;20110;-62
2022/08/05 11:38:42;;;;;;;3.67;0.60;;;20.20;93.50;;;;;;5051662;28;20079;-64
2022/08/05 11:41:19;;;;;;;1.67;0.68;;;20.20;93.60;;;;;;5030013;28;20061;-63
2022/08/05 11:44:11;;;;;;;3.30;0.70;;;20.10;94.30;;;;;;5030528;28;20033;-63
2022/08/05 11:46:46;;;;;;;1.63;0.57;;;20.00;95.00;;;;;;5046925;28;20048;-63
2022/08/05 11:49:15;;;;;;;2.92;0.88;;;20.00;95.70;;;;;;5030359;28;20052;-64
2022/08/05 11:51:43;;;;;;;4.03;1.38;;;19.10;99.90;;;;;;5030644;28;20120;-63
2022/08/05 11:54:11;;;;;;;4.88;1.33;;;19.90;96.10;;;;;;5014785;28;20494;-63
2022/08/05 11:56:48;;;;;;;2.58;0.90;;;19.90;96.20;;;;;;5005722;28;20037;-63
2022/08/05 11:59:17;;;;;;;2.20;0.70;;;20.20;96.00;;;;;;5026122;28;20145;-63
2022/08/05 12:02:05;;;;;;;2.38;0.68;;;20.20;99.90;;;;;;5025679;28;20501;-62
2022/08/05 12:04:46;;;;;;;2.55;0.90;;;20.30;96.20;;;;;;5013128;28;20109;-62
2022/08/05 12:07:13;;;;;;;3.33;0.55;;;20.40;95.10;;;;;;5027359;28;20060;-64
2022/08/05 12:09:47;;;;;;;2.17;0.50;;;20.30;94.70;;;;;;5032583;28;20056;-63
2022/08/05 12:12:21;;;;;;;3.33;0.90;;;20.20;94.90;;;;;;5016639;28;20041;-63
2022/08/05 12:14:47;;;;;;;2.80;0.73;;;20.30;95.10;;;;;;5053548;28;20040;-62
2022/08/05 12:17:13;;;;;;;1.83;0.38;;;20.20;95.00;;;;;;5035194;28;20037;-63
2022/08/05 12:19:51;;;;;;;3.25;0.80;;;20.20;92.90;;;;;;5027750;28;20037;-63
2022/08/05 12:22:20;;;;;;;1.42;0.63;;;20.10;92.60;;;;;;5017321;28;20068;-63
2022/08/05 12:24:49;;;;;;;2.92;0.50;;;20.00;93.40;;;;;;5030472;28;20037;-63
2022/08/05 12:27:27;;;;;;;5.68;1.30;;;19.70;93.70;;;;;;5053347;28;20097;-63
2022/08/05 12:30:03;;;;;;;1.02;0.40;;;19.80;99.90;;;;;;5035953;28;20048;-63
2022/08/05 12:32:32;;;;;;;2.45;0.80;;;19.80;99.90;;;;;;5043245;28;20037;-63
2022/08/05 12:34:58;;;;;;;2.42;0.90;;;19.60;99.90;;;;;;5034444;28;20454;-63
2022/08/05 12:37:24;;;;;;;1.75;0.55;;;20.00;99.90;;;;;;5034074;28;20037;-63
2022/08/05 12:39:53;;;;;;;1.75;0.60;;;20.00;92.80;;;;;;5051324;28;20102;-63
2022/08/05 12:42:20;;;;;;;1.85;0.60;;;20.00;92.50;;;;;;5051728;28;20099;-63
2022/08/05 12:44:46;;;;;;;2.00;0.68;;;20.00;91.40;;;;;;5033764;28;20053;-62
2022/08/05 12:47:13;;;;;;;1.95;0.43;;;19.90;91.50;;;;;;5051946;28;20044;-63
2022/08/05 12:49:39;;;;;;;4.97;0.90;;;19.90;92.30;;;;;;5052144;28;20059;-64
2022/08/05 12:52:12;;;;;;;2.22;0.70;;;20.30;99.90;;;;;;5033969;28;20090;-63
2022/08/05 12:54:39;;;;;;;1.73;0.60;;;20.00;93.70;;;;;;5050231;28;20044;-63
2022/08/05 12:57:06;;;;;;;0.63;0.40;;;20.10;93.30;;;;;;5051524;28;20091;-62
2022/08/05 12:59:41;;;;;;;6.75;1.73;;;20.10;92.70;;;;;;5040807;28;20469;-63
2022/08/05 13:02:09;;;;;;;3.03;0.98;;;19.90;93.20;;;;;;5044737;28;20042;-62
2022/08/05 13:04:37;;;;;;;3.70;0.90;;;20.30;92.90;;;;;;5061509;28;20048;-62
2022/08/05 13:07:11;;;;;;;3.58;1.00;;;19.60;92.70;;;;;;5062855;28;20053;-63
2022/08/05 13:09:39;;;;;;;8.35;1.48;;;19.60;93.00;;;;;;5049441;28;20051;-63
2022/08/05 13:12:11;;;;;;;3.53;0.65;;;19.40;93.70;;;;;;5051024;28;20068;-64
2022/08/05 13:14:50;;;;;;;4.22;1.10;;;19.20;94.10;;;;;;5033215;28;20116;-64
2022/08/05 13:17:18;;;;;;;8.52;2.72;;;19.30;95.30;;;;;;5016279;28;20132;-63
2022/08/05 13:20:03;;;;;;;8.48;2.13;;;;;;;;;;5040828;28;20543;-63
2022/08/05 13:22:38;;;;;;;;;;;;;;;;;;5053108;28;20056;-63
2022/08/05 13:25:05;;;;;;;7.38;2.20;;;;;;;;;;5054118;28;19916;-63